地図

経路データ

SID SEASON NUMBER BASIN SUBBASIN NAME ISO_TIME NATURE LAT LON WMO_WIND WMO_PRES WMO_AGENCY TRACK_TYPE DIST2LAND LANDFALL IFLAG USA_AGENCY USA_ATCF_ID USA_LAT USA_LON USA_RECORD USA_STATUS USA_WIND USA_PRES USA_SSHS USA_R34_NE USA_R34_SE USA_R34_SW USA_R34_NW USA_R50_NE USA_R50_SE USA_R50_SW USA_R50_NW USA_R64_NE USA_R64_SE USA_R64_SW USA_R64_NW USA_POCI USA_ROCI USA_RMW USA_EYE TOKYO_LAT TOKYO_LON TOKYO_GRADE TOKYO_WIND TOKYO_PRES TOKYO_R50_DIR TOKYO_R50_LONG TOKYO_R50_SHORT TOKYO_R30_DIR TOKYO_R30_LONG TOKYO_R30_SHORT TOKYO_LAND CMA_LAT CMA_LON CMA_CAT CMA_WIND CMA_PRES HKO_LAT HKO_LON HKO_CAT HKO_WIND HKO_PRES NEWDELHI_LAT NEWDELHI_LON NEWDELHI_GRADE NEWDELHI_WIND NEWDELHI_PRES NEWDELHI_CI NEWDELHI_DP NEWDELHI_POCI REUNION_LAT REUNION_LON REUNION_TYPE REUNION_WIND REUNION_PRES REUNION_TNUM REUNION_CI REUNION_RMW REUNION_R34_NE REUNION_R34_SE REUNION_R34_SW REUNION_R34_NW REUNION_R50_NE REUNION_R50_SE REUNION_R50_SW REUNION_R50_NW REUNION_R64_NE REUNION_R64_SE REUNION_R64_SW REUNION_R64_NW BOM_LAT BOM_LON BOM_TYPE BOM_WIND BOM_PRES BOM_TNUM BOM_CI BOM_RMW BOM_R34_NE BOM_R34_SE BOM_R34_SW BOM_R34_NW BOM_R50_NE BOM_R50_SE BOM_R50_SW BOM_R50_NW BOM_R64_NE BOM_R64_SE BOM_R64_SW BOM_R64_NW BOM_ROCI BOM_POCI BOM_EYE BOM_POS_METHOD BOM_PRES_METHOD NADI_LAT NADI_LON NADI_CAT NADI_WIND NADI_PRES WELLINGTON_LAT WELLINGTON_LON WELLINGTON_WIND WELLINGTON_PRES DS824_LAT DS824_LON DS824_STAGE DS824_WIND DS824_PRES TD9636_LAT TD9636_LON TD9636_STAGE TD9636_WIND TD9636_PRES TD9635_LAT TD9635_LON TD9635_WIND TD9635_PRES TD9635_ROCI NEUMANN_LAT NEUMANN_LON NEUMANN_CLASS NEUMANN_WIND NEUMANN_PRES MLC_LAT MLC_LON MLC_CLASS MLC_WIND MLC_PRES USA_GUST BOM_GUST BOM_GUST_PER REUNION_GUST REUNION_GUST_PER USA_SEAHGT USA_SEARAD_NE USA_SEARAD_SE USA_SEARAD_SW USA_SEARAD_NW STORM_SPEED STORM_DIR
1925357S12053 1926 66 SI MM NOT_NAMED 1925-12-23 06:00:00 NR -12.2000 53.1000 reunion main 358 324 _____O________ -1 -12.2000 53.1000 99 9.90000 7 254
1925357S12053 1926 66 SI MM NOT_NAMED 1925-12-23 09:00:00 NR -12.3019 52.7368 main 313 279 _____P________ -1 -12.3019 52.7368 99 7 254
1925357S12053 1926 66 SI MM NOT_NAMED 1925-12-23 12:00:00 NR -12.4081 52.3699 main 279 234 _____P________ -1 -12.4081 52.3699 99 8 253
1925357S12053 1926 66 SI MM NOT_NAMED 1925-12-23 15:00:00 NR -12.5233 51.9961 main 234 174 _____P________ -1 -12.5233 51.9961 99 10 245
1925357S12053 1926 66 SI MM NOT_NAMED 1925-12-23 18:00:00 NR -12.8219 51.4495 main 164 127 _____P____O___ -1 -12.6523 51.6119 99 -13.5000 50.8000 2 10 241
1925357S12053 1926 66 SI MM NOT_NAMED 1925-12-23 21:00:00 NR -13.0262 51.0802 main 127 89 _____P____P___ -1 -12.7998 51.2137 99 -13.4789 50.8133 2 7 240
1925357S12053 1926 66 SI MM NOT_NAMED 1925-12-24 00:00:00 NR -13.1915 50.7866 main 89 55 _____P____P___ -1 -12.9704 50.7981 99 -13.4863 50.7713 2 7 240
1925357S12053 1926 66 SI MM NOT_NAMED 1925-12-24 03:00:00 NR -13.3598 50.4901 main 54 10 _____P____P___ -1 -13.1690 50.3615 99 -13.5506 50.6187 2 7 240
1925357S12053 1926 66 SI MM NOT_NAMED 1925-12-24 06:00:00 TS -13.5667 50.1222 reunion main 10 0 _____O___OO___ -1 -13.4000 49.9000 99 9.90000 -13.7000 50.3000 TC 35 -13.7000 50.3000 2 10 241
1925357S12053 1926 66 SI MM NOT_NAMED 1925-12-24 09:00:00 TS -13.8445 49.6085 main 0 0 _____P___PP___ -1 -13.6661 49.4119 99 -13.9878 49.6552 TC 35 -13.9512 49.7817 2 12 241
1925357S12053 1926 66 SI MM NOT_NAMED 1925-12-24 12:00:00 TS -14.1684 49.0091 main 0 0 _____P___OP___ -1 -13.9613 48.9035 99 -14.3000 49.0000 TC 35 -14.2767 49.1214 2 14 241
1925357S12053 1926 66 SI MM NOT_NAMED 1925-12-24 15:00:00 TS -14.5221 48.3728 main 0 0 _____P___PP___ -1 -14.2777 48.3831 99 -14.6499 48.3350 TC 35 -14.6387 48.4003 2 14 240
1925357S12053 1926 66 SI MM NOT_NAMED 1925-12-24 18:00:00 TS -14.8691 47.7530 main 0 0 _____P___OO___ -1 -14.6072 47.8590 99 -15.0000 47.7000 TC 35 -15.0000 47.7000 2 13 240
1925357S12053 1926 66 SI MM NOT_NAMED 1925-12-24 21:00:00 TS -15.1881 47.1912 main 0 0 _____P___PP___ -1 -14.9419 47.3399 99 -15.3073 47.1273 TC 35 -15.3149 47.1064 2 12 239
1925357S12053 1926 66 SI MM NOT_NAMED 1925-12-25 00:00:00 TS -15.4988 46.6623 main 0 0 _____P___OP___ -1 -15.2741 46.8344 99 -15.6000 46.6000 TC 35 -15.6221 46.5523 2 12 238
1925357S12053 1926 66 SI MM NOT_NAMED 1925-12-25 03:00:00 TS -15.8073 46.1562 main 0 0 _____P___PP___ -1 -15.5960 46.3515 99 -15.9075 46.0700 TC 35 -15.9183 46.0471 2 11 237
1925357S12053 1926 66 SI MM NOT_NAMED 1925-12-25 06:00:00 TS -16.1000 45.7000 reunion main 0 0 _____O___OO___ -1 -15.9000 45.9000 99 9.90000 -16.2000 45.6000 TC 35 -16.2000 45.6000 2 10 236
1925357S12053 1926 66 SI MM NOT_NAMED 1925-12-25 09:00:00 TS -16.3599 45.3032 main 0 0 _____P___PP___ -1 -16.1586 45.4690 99 -16.4573 45.2198 TC 35 -16.4636 45.2208 2 9 235
1925357S12053 1926 66 SI MM NOT_NAMED 1925-12-25 12:00:00 TS -16.6057 44.9532 main 0 0 _____P___OP___ -1 -16.4031 45.0631 99 -16.7000 44.9000 TC 35 -16.7140 44.8965 2 8 233
1925357S12053 1926 66 SI MM NOT_NAMED 1925-12-25 15:00:00 TS -16.8477 44.6279 main 0 0 _____P___PP___ -1 -16.6357 44.6848 99 -16.9499 44.5999 TC 35 -16.9575 44.5990 2 8 232
1925357S12053 1926 66 SI MM NOT_NAMED 1925-12-25 18:00:00 TS -17.0862 44.3122 main 0 0 _____P___OO___ -1 -16.8587 44.3367 99 -17.2000 44.3000 TC 35 -17.2000 44.3000 2 8 233
1925357S12053 1926 66 SI MM NOT_NAMED 1925-12-25 21:00:00 TS -17.3316 43.9680 main 10 10 _____P___PP___ -1 -17.0743 44.0215 99 -17.4500 43.9574 TC 35 -17.4705 43.9250 2 8 233
1925357S12053 1926 66 SI MM NOT_NAMED 1925-12-26 00:00:00 TS -17.5743 43.6300 main 33 33 _____P___OP___ -1 -17.2849 43.7419 99 -17.7000 43.6000 TC 35 -17.7378 43.5480 2 8 232
1925357S12053 1926 66 SI MM NOT_NAMED 1925-12-26 03:00:00 TS -17.8172 43.3059 main 71 71 _____P___PP___ -1 -17.4928 43.5005 99 -17.9726 43.2201 TC 35 -17.9862 43.1969 2 7 231
1925357S12053 1926 66 SI MM NOT_NAMED 1925-12-26 06:00:00 TS -18.0333 43.0333 reunion main 105 105 _____O___OO___ -1 -17.7000 43.3000 99 9.90000 -18.2000 42.9000 TC 35 -18.2000 42.9000 2 6 230
1925357S12053 1926 66 SI MM NOT_NAMED 1925-12-26 09:00:00 TS -18.1892 42.8378 main 126 126 _____P___PP___ -1 -17.9125 43.1219 99 -18.3149 42.7198 TC 35 -18.3403 42.6717 2 4 228
1925357S12053 1926 66 SI MM NOT_NAMED 1925-12-26 12:00:00 TS -18.3241 42.6961 main 137 137 _____P___OP___ -1 -18.1227 42.9863 99 -18.4000 42.6000 TC 35 -18.4496 42.5019 2 4 222
1925357S12053 1926 66 SI MM NOT_NAMED 1925-12-26 15:00:00 TS -18.4728 42.5682 main 148 148 _____P___PP___ -1 -18.3318 42.8884 99 -18.5275 42.4350 TC 35 -18.5592 42.3812 2 4 213
1925357S12053 1926 66 SI MM NOT_NAMED 1925-12-26 18:00:00 TS -18.6470 42.4746 main 159 159 _____P___OO___ -1 -18.5409 42.8237 99 -18.7000 42.3000 TC 35 -18.7000 42.3000 2 4 199
1925357S12053 1926 66 SI MM NOT_NAMED 1925-12-26 21:00:00 TS -18.8694 42.4152 main 177 177 _____P___PP___ -1 -18.7512 42.7872 99 -18.9350 42.2275 TC 35 -18.9221 42.2309 2 5 189
1925357S12053 1926 66 SI MM NOT_NAMED 1925-12-27 00:00:00 TS -19.1137 42.3906 main 185 185 _____P___OP___ -1 -18.9638 42.7743 99 -19.2000 42.2000 TC 35 -19.1774 42.1974 2 5 181
1925357S12053 1926 66 SI MM NOT_NAMED 1925-12-27 03:00:00 TS -19.3604 42.3876 main 191 191 _____P___PP___ -1 -19.1797 42.7802 99 -19.4575 42.1925 TC 35 -19.4440 42.1903 2 5 0
1925357S12053 1926 66 SI MM NOT_NAMED 1925-12-27 06:00:00 TS -19.6000 42.4000 reunion main 196 192 _____O___OO___ -1 -19.4000 42.8000 99 9.90000 -19.7000 42.2000 TC 35 -19.7000 42.2000 2 4 0
1925357S12053 1926 66 SI MM NOT_NAMED 1925-12-27 09:00:00 TS -19.8045 42.3923 main 192 180 _____P___PP___ -1 -19.5918 42.7859 99 -19.9075 42.1925 TC 35 -19.9143 42.1985 2 4 178
1925357S12053 1926 66 SI MM NOT_NAMED 1925-12-27 12:00:00 TS -19.9994 42.4002 main 180 170 _____P___OP___ -1 -19.7833 42.7882 99 -20.1000 42.2000 TC 35 -20.1150 42.2126 2 4 175
1925357S12053 1926 66 SI MM NOT_NAMED 1925-12-27 15:00:00 TS -20.1964 42.4294 main 170 152 _____P___PP___ -1 -19.9812 42.8077 99 -20.3000 42.2350 TC 35 -20.3081 42.2454 2 4 169
1925357S12053 1926 66 SI MM NOT_NAMED 1925-12-27 18:00:00 TS -20.3974 42.4818 main 152 137 _____P___OO___ -1 -20.1922 42.8455 99 -20.5000 42.3000 TC 35 -20.5000 42.3000 2 4 165
1925357S12053 1926 66 SI MM NOT_NAMED 1925-12-27 21:00:00 TS -20.5927 42.5486 main 137 114 _____P___PP___ -1 -20.4229 42.9026 99 -20.7000 42.3925 TC 35 -20.6552 42.3507 2 4 161
1925357S12053 1926 66 SI MM NOT_NAMED 1925-12-28 00:00:00 TS -20.7991 42.6354 main 114 94 _____P___OP___ -1 -20.6800 42.9800 99 -20.9000 42.5000 TC 35 -20.8173 42.4262 2 5 158
1925357S12053 1926 66 SI MM NOT_NAMED 1925-12-28 03:00:00 TS -21.0153 42.7317 main 94 63 _____P___PP___ -1 -20.9702 43.0787 99 -21.0549 42.5778 TC 35 -21.0207 42.5385 2 5 157
1925357S12053 1926 66 SI MM NOT_NAMED 1925-12-28 06:00:00 TS -21.3000 42.8667 reunion main 63 32 _____O___OO___ -1 -21.3000 43.2000 99 9.90000 -21.3000 42.7000 TC 35 -21.3000 42.7000 2 8 157
1925357S12053 1926 66 SI MM NOT_NAMED 1925-12-28 09:00:00 TS -21.7288 43.0640 main 32 0 _____P___PP___ -1 -21.7156 43.3444 99 -21.7625 42.9199 TC 35 -21.7084 42.9279 2 10 156
1925357S12053 1926 66 SI MM NOT_NAMED 1925-12-28 12:00:00 TS -22.2217 43.3061 main 0 0 _____P___OP___ -1 -22.1748 43.5145 99 -22.3000 43.2000 TC 35 -22.1904 43.2038 2 11 154
1925357S12053 1926 66 SI MM NOT_NAMED 1925-12-28 15:00:00 TS -22.7105 43.5695 main 0 0 _____P___PP___ -1 -22.6644 43.7055 99 -22.7650 43.5000 TC 35 -22.7021 43.5030 2 11 153
1925357S12053 1926 66 SI MM NOT_NAMED 1925-12-28 18:00:00 TS -23.1903 43.8376 main 0 0 _____P___OO___ -1 -23.1709 43.9127 99 -23.2000 43.8000 TC 35 -23.2000 43.8000 2 11 153
1925357S12053 1926 66 SI MM NOT_NAMED 1925-12-28 21:00:00 TS -23.6462 44.0877 main 0 0 _____P___PP___ -1 -23.6810 44.1310 99 -23.6074 44.0578 TC 35 -23.6502 44.0743 2 10 153
1925357S12053 1926 66 SI MM NOT_NAMED 1925-12-29 00:00:00 TS -24.0898 44.3303 main 0 0 _____P___OP___ -1 -24.1814 44.3552 99 -24.0000 44.3000 TC 35 -24.0574 44.3275 2 10 154
1925357S12053 1926 66 SI MM NOT_NAMED 1925-12-29 03:00:00 TS -24.5378 44.5685 main 0 0 _____P___PP___ -1 -24.6588 44.5800 99 -24.3976 44.5471 TC 35 -24.4359 44.5669 2 10 155
1925357S12053 1926 66 SI MM NOT_NAMED 1925-12-29 06:00:00 TS -25.0000 44.8000 reunion main 0 0 _____O___OO___ -1 -25.1000 44.8000 99 9.90000 -24.8000 44.8000 TC 35 -24.8000 44.8000 2 10 157
1925357S12053 1926 66 SI MM NOT_NAMED 1925-12-29 09:00:00 NR -25.4952 45.0106 main 0 0 _____P________ -1 -25.4952 45.0106 99 TC 2 9 156
1925357S12053 1926 66 SI MM NOT_NAMED 1925-12-29 12:00:00 NR -25.8472 45.2119 main 22 22 _____P________ -1 -25.8472 45.2119 99 2 8 152
1925357S12053 1926 66 SI MM NOT_NAMED 1925-12-29 15:00:00 NR -26.1624 45.4052 main 67 67 _____P________ -1 -26.1624 45.4052 99 2 7 150
1925357S12053 1926 66 SI MM NOT_NAMED 1925-12-29 18:00:00 NR -26.4468 45.5918 main 89 89 _____P________ -1 -26.4468 45.5918 99 6 149
1925357S12053 1926 66 SI MM NOT_NAMED 1925-12-29 21:00:00 NR -26.7067 45.7731 main 126 126 _____P________ -1 -26.7067 45.7731 99 6 147
1925357S12053 1926 66 SI MM NOT_NAMED 1925-12-30 00:00:00 NR -26.9481 45.9506 main 153 153 _____P________ -1 -26.9481 45.9506 99 6 146
1925357S12053 1926 66 SI MM NOT_NAMED 1925-12-30 03:00:00 NR -27.1772 46.1257 main 188 188 _____P________ -1 -27.1772 46.1257 99 6 146
1925357S12053 1926 66 SI MM NOT_NAMED 1925-12-30 06:00:00 NR -27.4000 46.3000 reunion main 216 _____O________ -1 -27.4000 46.3000 99 9.90000 5 145

IBTrACS Databaseについて

本データベースは、米国NOAAが公開する1842年以降の世界の熱帯低気圧のベストトラックデータアーカイブInternational Best Track Archive for Climate Stewardship (IBTrACS)を、ウェブで閲覧しやすい形式に変換したものです。

最終更新日:2021-10-08